Time;durP1;ratioP1;P1;durP2;ratioP2;P2;SDS_P1;SDS_P2;PMS_P1;PMS_P2;Temp;Humidity;BMP_temperature;BMP_pressure;BME280_temperature;BME280_humidity;BME280_pressure;Samples;Min_cycle;Max_cycle;Signal;HPM_P1;HPM_P2
2023/11/30 00:02:07;;;;;;;;;;;;;;;18.29;64.44;100838.06;7388703;19;1797;-52
2023/11/30 00:04:35;;;;;;;;;;;;;;;18.23;64.47;100823.34;7391091;19;1839;-51
2023/11/30 00:07:10;;;;;;;;;;;;;;;18.23;64.26;100839.41;7391195;19;1516;-50
2023/11/30 00:09:38;;;;;;;;;;;;;;;18.29;64.21;100825.53;7390550;19;1901;-52
2023/11/30 00:12:07;;;;;;;;;;;;;;;18.32;64.19;100845.81;7392307;19;1455;-50
2023/11/30 00:14:35;;;;;;;;;;;;;;;18.28;64.60;100847.94;7392202;19;1490;-52
2023/11/30 00:17:04;;;;;;;;;;;;;;;18.29;64.36;100848.78;7390992;19;1930;-56
2023/11/30 00:19:34;;;;;;;;;;;;;;;18.28;64.20;100855.09;7388389;19;1884;-68
2023/11/30 00:22:02;;;;;;;;;;;;;;;18.26;64.24;100857.91;7389398;19;1435;-51
2023/11/30 00:24:33;;;;;;;;;;;;;;;18.28;64.03;100858.63;7390951;19;1424;-52
2023/11/30 00:27:02;;;;;;;;;;;;;;;18.23;64.08;100866.19;7390439;19;1461;-52
2023/11/30 00:29:30;;;;;;;;;;;;;;;18.28;64.13;100873.81;7388367;19;1754;-51
2023/11/30 00:31:58;;;;;;;;;;;;;;;18.24;64.07;100870.56;7390786;19;1471;-50
2023/11/30 00:34:26;;;;;;;;;;;;;;;18.24;63.96;100873.25;7390797;19;1334;-50
2023/11/30 00:36:55;;;;;;;;;;;;;;;18.28;64.02;100869.34;7398107;19;1844;-50
2023/11/30 00:39:23;;;;;;;;;;;;;;;18.20;64.21;100882.50;7395602;19;1942;-52
2023/11/30 00:41:54;;;;;;;;;;;;;;;18.20;64.15;100887.00;7399120;19;1574;-51
2023/11/30 00:44:22;;;;;;;;;;;;;;;18.17;64.32;100869.38;7399160;19;1558;-52
2023/11/30 00:46:51;;;;;;;;;;;;;;;18.22;64.20;100877.00;7379099;19;2024;-52
2023/11/30 00:49:19;;;;;;;;;;;;;;;18.19;64.26;100886.16;7398743;19;1731;-52
2023/11/30 00:51:47;;;;;;;;;;;;;;;18.17;63.87;100890.78;7399001;19;1742;-51
2023/11/30 00:54:16;;;;;;;;;;;;;;;18.19;64.39;100878.13;7396366;19;1963;-51
2023/11/30 00:56:44;;;;;;;;;;;;;;;18.19;64.17;100882.63;7395642;19;1828;-51
2023/11/30 00:59:15;;;;;;;;;;;;;;;18.15;64.19;100895.41;7394524;19;1903;-50
2023/11/30 01:01:44;;;;;;;;;;;;;;;18.14;64.09;100899.06;7397544;19;1888;-51
2023/11/30 01:04:12;;;;;;;;;;;;;;;18.21;64.02;100899.41;7398089;19;1753;-52
2023/11/30 01:06:40;;;;;;;;;;;;;;;18.19;64.11;100907.56;7397601;19;1532;-51
2023/11/30 01:09:09;;;;;;;;;;;;;;;18.21;63.88;100902.94;7397031;19;1485;-52
2023/11/30 01:11:42;;;;;;;;;;;;;;;18.17;64.10;100882.75;7397713;19;1443;-51
2023/11/30 01:14:10;;;;;;;;;;;;;;;18.13;64.06;100902.72;7393299;19;1531;-51
2023/11/30 01:16:42;;;;;;;;;;;;;;;18.13;64.22;100913.44;7398140;19;1444;-51
2023/11/30 01:19:10;;;;;;;;;;;;;;;18.15;63.98;100922.19;7395679;19;1822;-50
2023/11/30 01:21:38;;;;;;;;;;;;;;;18.13;63.98;100910.75;7396472;19;1464;-51
2023/11/30 01:24:07;;;;;;;;;;;;;;;18.15;63.77;100919.50;7397271;19;1373;-51
2023/11/30 01:26:35;;;;;;;;;;;;;;;17.98;64.44;100904.81;7397960;19;1526;-51
2023/11/30 01:29:04;;;;;;;;;;;;;;;18.19;63.88;100901.38;7394762;19;1354;-51
2023/11/30 01:31:33;;;;;;;;;;;;;;;18.62;62.65;100901.31;7397296;19;1851;-52
2023/11/30 01:34:03;;;;;;;;;;;;;;;18.93;61.91;100912.13;7396489;19;1930;-51
2023/11/30 01:36:32;;;;;;;;;;;;;;;18.59;62.46;100919.47;7396204;19;1824;-51
2023/11/30 01:39:00;;;;;;;;;;;;;;;18.39;62.93;100913.09;7394879;19;1841;-51
2023/11/30 01:41:28;;;;;;;;;;;;;;;18.29;63.48;100908.50;7396034;19;1607;-50
2023/11/30 01:43:57;;;;;;;;;;;;;;;18.25;63.46;100916.94;7397022;19;1440;-52
2023/11/30 01:46:25;;;;;;;;;;;;;;;18.18;63.73;100919.25;7382005;19;1467;-51
2023/11/30 01:48:53;;;;;;;;;;;;;;;18.20;63.71;100919.97;7396153;19;1844;-51
2023/11/30 01:51:25;;;;;;;;;;;;;;;18.21;63.66;100932.38;7397203;19;1562;-51
2023/11/30 01:53:54;;;;;;;;;;;;;;;18.18;63.75;100927.28;7397059;19;1658;-52
2023/11/30 01:56:23;;;;;;;;;;;;;;;18.12;63.90;100919.75;7396145;19;1396;-51
2023/11/30 01:58:51;;;;;;;;;;;;;;;18.17;63.63;100928.25;7394911;19;1847;-51
2023/11/30 02:01:20;;;;;;;;;;;;;;;18.12;63.92;100932.28;7395639;19;1480;-51
2023/11/30 02:03:48;;;;;;;;;;;;;;;18.14;63.65;100947.22;7396879;19;1414;-52
2023/11/30 02:06:18;;;;;;;;;;;;;;;18.10;63.64;100948.47;7395554;19;1849;-50
2023/11/30 02:08:50;;;;;;;;;;;;;;;18.07;63.57;100940.69;7395406;19;1489;-52
2023/11/30 02:11:18;;;;;;;;;;;;;;;18.13;63.82;100939.34;7395110;19;1515;-51
2023/11/30 02:13:48;;;;;;;;;;;;;;;18.06;63.80;100947.88;7395575;19;1451;-50
2023/11/30 02:16:16;;;;;;;;;;;;;;;18.04;63.94;100946.28;7396242;19;1583;-51
2023/11/30 02:18:44;;;;;;;;;;;;;;;18.08;63.71;100953.09;7395513;19;1841;-51
2023/11/30 02:21:13;;;;;;;;;;;;;;;18.07;63.49;100941.53;7393435;19;1469;-51
2023/11/30 02:23:44;;;;;;;;;;;;;;;18.05;63.68;100948.84;7396907;19;1700;-51
2023/11/30 02:26:12;;;;;;;;;;;;;;;18.07;63.64;100940.69;7394851;19;1865;-51
2023/11/30 02:28:41;;;;;;;;;;;;;;;17.92;63.85;100937.44;7394641;19;1946;-52
2023/11/30 02:31:09;;;;;;;;;;;;;;;18.11;63.88;100963.56;7394403;19;1745;-51
2023/11/30 02:33:37;;;;;;;;;;;;;;;18.20;63.23;100953.91;7395005;19;1545;-53
2023/11/30 02:36:06;;;;;;;;;;;;;;;18.15;63.48;100973.03;7394168;19;1603;-61
2023/11/30 02:38:34;;;;;;;;;;;;;;;18.12;63.57;100967.91;7393939;19;1819;-51
2023/11/30 02:41:06;;;;;;;;;;;;;;;18.93;61.49;100965.72;7395446;19;1741;-50
2023/11/30 02:43:34;;;;;;;;;;;;;;;19.84;58.95;100958.75;7394281;19;1169;-52
2023/11/30 02:46:02;;;;;;;;;;;;;;;20.29;57.87;100965.47;7393932;19;1922;-51
2023/11/30 02:48:30;;;;;;;;;;;;;;;20.32;57.57;100975.94;7379426;19;1496;-51
2023/11/30 02:50:59;;;;;;;;;;;;;;;20.42;57.18;100975.97;7395828;19;1435;-51
2023/11/30 02:53:27;;;;;;;;;;;;;;;20.26;57.96;100979.19;7394697;19;1942;-52
2023/11/30 02:55:55;;;;;;;;;;;;;;;20.24;58.02;100984.69;7395986;19;1486;-51
2023/11/30 02:58:26;;;;;;;;;;;;;;;20.35;57.62;100983.75;7389881;19;1437;-51
2023/11/30 03:00:55;;;;;;;;;;;;;;;20.50;57.12;100978.78;7391896;19;1767;-52
2023/11/30 03:03:23;;;;;;;;;;;;;;;20.52;57.01;100970.59;7392807;19;1531;-51
2023/11/30 03:05:52;;;;;;;;;;;;;;;20.59;56.84;100978.00;7395327;19;1562;-51
2023/11/30 03:08:20;;;;;;;;;;;;;;;20.56;56.82;100980.91;7392069;19;2395;-55
2023/11/30 03:10:49;;;;;;;;;;;;;;;20.62;56.63;100983.06;7395651;19;1393;-51
2023/11/30 03:13:17;;;;;;;;;;;;;;;20.64;56.96;100981.09;7394536;19;1800;-50
2023/11/30 03:15:49;;;;;;;;;;;;;;;20.73;56.59;100991.97;7392710;19;1900;-51
2023/11/30 03:18:17;;;;;;;;;;;;;;;20.72;56.37;100977.69;7393575;19;1578;-51
2023/11/30 03:20:46;;;;;;;;;;;;;;;20.66;56.67;100995.22;7390859;19;1839;-51
2023/11/30 03:23:14;;;;;;;;;;;;;;;20.84;56.46;100971.19;7391600;19;1394;-51
2023/11/30 03:25:42;;;;;;;;;;;;;;;20.83;56.16;100976.69;7393161;19;1372;-51
2023/11/30 03:28:11;;;;;;;;;;;;;;;20.77;56.35;100975.44;7392902;19;1540;-51
2023/11/30 03:30:39;;;;;;;;;;;;;;;20.81;56.31;100965.22;7391070;19;1491;-50
2023/11/30 03:33:10;;;;;;;;;;;;;;;20.82;56.29;100988.44;7390973;19;1389;-50
2023/11/30 03:35:38;;;;;;;;;;;;;;;20.80;56.48;100990.44;7391082;19;1547;-51
2023/11/30 03:38:07;;;;;;;;;;;;;;;20.83;56.20;101000.88;7393380;19;1339;-50
2023/11/30 03:40:35;;;;;;;;;;;;;;;20.91;56.15;100997.50;7390679;19;1853;-51
2023/11/30 03:43:03;;;;;;;;;;;;;;;20.86;56.27;100988.00;7393129;19;1859;-51
2023/11/30 03:45:33;;;;;;;;;;;;;;;20.91;56.20;100992.97;7392537;19;1475;-52
2023/11/30 03:48:02;;;;;;;;;;;;;;;20.89;56.18;100984.22;7376589;19;1456;-50
2023/11/30 03:50:33;;;;;;;;;;;;;;;20.98;56.16;101004.00;7390227;19;1441;-51
2023/11/30 03:53:01;;;;;;;;;;;;;;;20.95;55.93;100989.00;7391951;19;1460;-50
2023/11/30 03:55:30;;;;;;;;;;;;;;;20.95;56.06;100989.00;7392691;19;1818;-50
2023/11/30 03:57:58;;;;;;;;;;;;;;;20.94;55.99;100987.31;7392482;19;1574;-51
2023/11/30 04:00:26;;;;;;;;;;;;;;;20.80;56.18;100990.44;7389776;19;1862;-51
2023/11/30 04:02:55;;;;;;;;;;;;;;;20.62;56.93;100999.19;7390405;19;1923;-51
2023/11/30 04:05:23;;;;;;;;;;;;;;;20.49;57.08;100995.88;7391132;19;1446;-51
2023/11/30 04:07:54;;;;;;;;;;;;;;;20.40;57.51;101004.81;7391457;19;1420;-51
2023/11/30 04:10:23;;;;;;;;;;;;;;;20.35;57.61;101007.91;7396849;19;1546;-51
2023/11/30 04:12:51;;;;;;;;;;;;;;;20.27;57.46;101005.03;7397573;19;1464;-50
2023/11/30 04:15:19;;;;;;;;;;;;;;;20.27;57.77;101022.03;7397170;19;1462;-49
2023/11/30 04:17:48;;;;;;;;;;;;;;;20.23;57.80;101023.28;7399303;19;1558;-52
2023/11/30 04:20:17;;;;;;;;;;;;;;;20.23;57.79;101031.34;7396029;19;1841;-50
2023/11/30 04:22:45;;;;;;;;;;;;;;;20.19;57.59;101037.97;7398404;19;1413;-51
2023/11/30 04:25:16;;;;;;;;;;;;;;;20.18;57.51;101046.16;7396195;19;1530;-50
2023/11/30 04:27:45;;;;;;;;;;;;;;;20.12;57.23;101023.38;7396300;19;3270;-51
2023/11/30 04:30:13;;;;;;;;;;;;;;;20.26;56.95;101040.97;7396666;19;1563;-51
2023/11/30 04:32:42;;;;;;;;;;;;;;;20.29;56.48;101023.72;7397809;19;1420;-51
2023/11/30 04:35:10;;;;;;;;;;;;;;;20.25;56.84;101026.69;7397346;19;1494;-50
2023/11/30 04:37:39;;;;;;;;;;;;;;;20.39;56.12;101027.25;7396973;19;1203;-51
2023/11/30 04:40:09;;;;;;;;;;;;;;;20.48;55.63;101013.00;7396199;19;1849;-51
2023/11/30 04:42:40;;;;;;;;;;;;;;;20.57;55.26;101035.50;7395431;19;1441;-52
2023/11/30 04:45:08;;;;;;;;;;;;;;;20.55;54.92;101043.72;7397411;19;1526;-51
2023/11/30 04:47:37;;;;;;;;;;;;;;;20.47;55.05;101038.16;7299990;19;14714;-49
2023/11/30 04:50:06;;;;;;;;;;;;;;;20.36;54.90;101041.81;7394939;19;1487;-51
2023/11/30 04:52:34;;;;;;;;;;;;;;;20.30;55.24;101041.53;7398246;19;1457;-50
2023/11/30 04:55:02;;;;;;;;;;;;;;;20.20;54.83;101047.72;7396767;19;1572;-50
2023/11/30 04:57:31;;;;;;;;;;;;;;;20.31;54.82;101057.50;7393952;19;1446;-50
2023/11/30 05:00:02;;;;;;;;;;;;;;;20.25;54.79;101056.22;7395336;19;1859;-51
2023/11/30 05:02:30;;;;;;;;;;;;;;;20.25;54.78;101049.97;7397966;19;1481;-51
2023/11/30 05:04:58;;;;;;;;;;;;;;;20.14;55.49;101064.38;7391414;19;1843;-45
2023/11/30 05:07:27;;;;;;;;;;;;;;;20.11;55.71;101053.91;7395759;19;1860;-43
2023/11/30 05:09:55;;;;;;;;;;;;;;;20.19;55.21;101062.16;7393978;19;1479;-43
2023/11/30 05:12:24;;;;;;;;;;;;;;;19.99;54.22;101066.56;7394067;19;1556;-43
2023/11/30 05:14:52;;;;;;;;;;;;;;;19.98;54.27;101064.03;7397134;19;1585;-43
2023/11/30 05:17:23;;;;;;;;;;;;;;;20.04;54.28;101061.66;7398226;19;1543;-43
2023/11/30 05:19:51;;;;;;;;;;;;;;;20.13;54.09;101091.34;7396111;19;1851;-43
2023/11/30 05:22:19;;;;;;;;;;;;;;;20.09;54.24;101071.97;7394705;19;1947;-43
2023/11/30 05:24:49;;;;;;;;;;;;;;;20.04;54.51;101079.59;7397065;19;1532;-43
2023/11/30 05:27:17;;;;;;;;;;;;;;;20.02;54.13;101097.69;7397960;19;1600;-43
2023/11/30 05:29:45;;;;;;;;;;;;;;;19.94;54.15;101084.91;7398697;19;1567;-43
2023/11/30 05:32:14;;;;;;;;;;;;;;;19.99;53.92;101093.41;7397078;19;1436;-43
2023/11/30 05:34:45;;;;;;;;;;;;;;;19.96;54.10;101082.94;7397487;19;1386;-43
2023/11/30 05:37:13;;;;;;;;;;;;;;;19.83;54.23;101091.22;7398436;19;1143;-43
2023/11/30 05:39:41;;;;;;;;;;;;;;;19.37;55.59;101108.53;7395387;19;1867;-43
2023/11/30 05:42:10;;;;;;;;;;;;;;;19.06;56.39;101103.06;7396558;19;1662;-43
2023/11/30 05:44:38;;;;;;;;;;;;;;;18.88;56.73;101108.13;7397529;19;1484;-43
2023/11/30 05:47:07;;;;;;;;;;;;;;;18.66;56.90;101106.34;7394090;19;1400;-43
2023/11/30 05:49:36;;;;;;;;;;;;;;;18.64;57.41;101113.63;7378314;19;1858;-43
2023/11/30 05:52:07;;;;;;;;;;;;;;;18.96;56.58;101103.94;7393519;19;1541;-43
2023/11/30 05:54:36;;;;;;;;;;;;;;;19.61;55.30;101104.75;7392799;19;1498;-43
2023/11/30 05:57:04;;;;;;;;;;;;;;;19.80;54.84;101115.63;7394781;19;1467;-43
2023/11/30 05:59:32;;;;;;;;;;;;;;;20.08;53.94;101099.81;7394759;19;1922;-43
2023/11/30 06:02:01;;;;;;;;;;;;;;;20.13;52.40;101105.63;7396158;19;1861;-43
2023/11/30 06:04:31;;;;;;;;;;;;;;;20.13;52.22;101097.56;7393560;19;1838;-43
2023/11/30 06:06:59;;;;;;;;;;;;;;;19.99;52.36;101103.31;7396295;19;1510;-44
2023/11/30 06:09:30;;;;;;;;;;;;;;;19.96;52.29;101098.22;7394192;19;1435;-44
2023/11/30 06:11:58;;;;;;;;;;;;;;;19.90;52.52;101106.81;7393352;19;1808;-44
2023/11/30 06:14:26;;;;;;;;;;;;;;;19.90;52.72;101104.13;7391468;19;1327;-44
2023/11/30 06:16:55;;;;;;;;;;;;;;;19.88;52.61;101095.34;7395138;19;1502;-45
2023/11/30 06:19:24;;;;;;;;;;;;;;;19.92;52.82;101118.25;7393475;19;1763;-44
2023/11/30 06:21:52;;;;;;;;;;;;;;;19.84;52.84;101100.97;7391765;19;1856;-44
2023/11/30 06:24:20;;;;;;;;;;;;;;;19.52;53.01;101051.88;7392264;19;1522;-44
2023/11/30 06:26:51;;;;;;;;;;;;;;;19.80;53.06;101104.91;7393544;19;1666;-44
2023/11/30 06:29:20;;;;;;;;;;;;;;;19.73;53.17;101119.81;7388997;19;1469;-44
2023/11/30 06:31:48;;;;;;;;;;;;;;;19.83;52.99;101119.88;7391631;19;1567;-44
2023/11/30 06:34:16;;;;;;;;;;;;;;;19.84;53.30;101125.13;7388362;19;1927;-44
2023/11/30 06:36:45;;;;;;;;;;;;;;;19.85;53.16;101134.88;7391034;19;1510;-44
2023/11/30 06:39:13;;;;;;;;;;;;;;;19.77;53.40;101126.63;7391573;19;1422;-44
2023/11/30 06:41:41;;;;;;;;;;;;;;;19.85;53.11;101150.97;7390086;19;2026;-44
2023/11/30 06:44:12;;;;;;;;;;;;;;;19.86;53.23;101131.22;7394898;19;1508;-44
2023/11/30 06:46:42;;;;;;;;;;;;;;;19.86;53.15;101151.84;7395312;19;1558;-44
2023/11/30 06:49:10;;;;;;;;;;;;;;;19.90;53.16;101141.69;7380178;19;1485;-44
2023/11/30 06:51:39;;;;;;;;;;;;;;;19.87;53.10;101129.38;7395277;19;1286;-44
2023/11/30 06:54:07;;;;;;;;;;;;;;;19.93;53.01;101133.38;7394930;19;1842;-44
2023/11/30 06:56:35;;;;;;;;;;;;;;;19.92;53.42;101145.94;7394805;19;1849;-44
2023/11/30 06:59:03;;;;;;;;;;;;;;;19.90;53.19;101128.28;7394124;19;1636;-44
2023/11/30 07:01:36;;;;;;;;;;;;;;;20.03;53.00;101142.31;7393350;19;1850;-44
2023/11/30 07:04:04;;;;;;;;;;;;;;;20.03;53.52;101153.94;7394858;19;1767;-44
2023/11/30 07:06:33;;;;;;;;;;;;;;;20.01;53.34;101141.59;7394541;19;1868;-44
2023/11/30 07:09:01;;;;;;;;;;;;;;;20.00;53.27;101137.22;7393565;19;1830;-44
2023/11/30 07:11:29;;;;;;;;;;;;;;;20.06;53.11;101147.44;7393671;19;1583;-44
2023/11/30 07:13:59;;;;;;;;;;;;;;;20.07;53.21;101138.38;7394456;19;1545;-44
2023/11/30 07:16:28;;;;;;;;;;;;;;;20.14;52.91;101152.13;7395819;19;1837;-44
2023/11/30 07:18:59;;;;;;;;;;;;;;;20.15;53.21;101135.03;7393219;19;1508;-44
2023/11/30 07:21:27;;;;;;;;;;;;;;;20.12;53.00;101130.78;7394015;19;1862;-44
2023/11/30 07:23:56;;;;;;;;;;;;;;;20.18;52.99;101137.47;7391913;19;1659;-44
2023/11/30 07:26:24;;;;;;;;;;;;;;;20.20;52.88;101139.00;7394089;19;1828;-44
2023/11/30 07:28:52;;;;;;;;;;;;;;;20.22;53.14;101150.47;7391848;19;1445;-44
2023/11/30 07:31:21;;;;;;;;;;;;;;;20.29;52.93;101152.63;7394171;19;1575;-44
2023/11/30 07:33:50;;;;;;;;;;;;;;;20.35;52.65;101142.22;7394768;19;1635;-45
2023/11/30 07:36:20;;;;;;;;;;;;;;;20.39;52.71;101148.13;7394266;19;1797;-44
2023/11/30 07:38:49;;;;;;;;;;;;;;;20.39;52.75;101140.94;7393422;19;1531;-45
2023/11/30 07:41:17;;;;;;;;;;;;;;;20.43;52.76;101144.19;7393529;19;1845;-45
2023/11/30 07:43:46;;;;;;;;;;;;;;;20.53;52.72;101145.09;7393179;19;1465;-44
2023/11/30 07:46:14;;;;;;;;;;;;;;;20.55;52.75;101144.94;7393994;19;1619;-44
2023/11/30 07:48:42;;;;;;;;;;;;;;;20.46;52.88;101138.56;7378501;19;1544;-44
2023/11/30 07:51:11;;;;;;;;;;;;;;;19.98;53.97;101136.50;7393850;19;1473;-44
2023/11/30 07:53:42;;;;;;;;;;;;;;;19.68;54.89;101151.56;7392331;19;1815;-44
2023/11/30 07:56:13;;;;;;;;;;;;;;;19.51;55.39;101154.81;7391648;19;1873;-44
2023/11/30 07:58:43;;;;;;;;;;;;;;;19.43;55.38;101145.56;7392866;19;1913;-44
2023/11/30 08:01:12;;;;;;;;;;;;;;;19.35;55.95;101157.91;7391353;19;1842;-44
2023/11/30 08:03:40;;;;;;;;;;;;;;;19.89;54.61;101140.81;7390617;19;1549;-44
2023/11/30 08:06:09;;;;;;;;;;;;;;;20.15;54.02;101129.66;7392249;19;1646;-44
2023/11/30 08:08:38;;;;;;;;;;;;;;;20.09;54.24;101131.03;7393976;19;1541;-44
2023/11/30 08:11:09;;;;;;;;;;;;;;;19.35;55.03;101064.06;7392838;19;1580;-44
2023/11/30 08:13:38;;;;;;;;;;;;;;;19.57;55.53;101149.75;7392087;19;1817;-44
2023/11/30 08:16:07;;;;;;;;;;;;;;;19.44;55.73;101136.56;7391685;19;1656;-44
2023/11/30 08:18:36;;;;;;;;;;;;;;;19.37;56.02;101130.00;7393189;19;1590;-45
2023/11/30 08:21:05;;;;;;;;;;;;;;;19.57;55.68;101135.50;7392715;19;1848;-44
2023/11/30 08:23:33;;;;;;;;;;;;;;;20.11;54.55;101172.03;7390915;19;1856;-44
2023/11/30 08:26:03;;;;;;;;;;;;;;;20.37;53.82;101131.31;7391457;19;1932;-45
2023/11/30 08:28:34;;;;;;;;;;;;;;;20.07;54.51;101111.53;7392391;19;1536;-45
2023/11/30 08:31:05;;;;;;;;;;;;;;;19.76;55.20;101134.84;7392636;19;1580;-44
2023/11/30 08:33:33;;;;;;;;;;;;;;;19.57;55.70;101132.81;7390941;19;1568;-44
2023/11/30 08:36:02;;;;;;;;;;;;;;;19.42;56.01;101129.63;7391132;19;1424;-45
2023/11/30 08:38:31;;;;;;;;;;;;;;;19.86;55.14;101116.94;7392372;19;1346;-44
2023/11/30 08:40:59;;;;;;;;;;;;;;;20.34;54.15;101121.69;7392096;19;1857;-44
2023/11/30 08:43:28;;;;;;;;;;;;;;;20.18;54.32;101108.75;7392259;19;1921;-45
2023/11/30 08:45:58;;;;;;;;;;;;;;;19.84;55.27;101109.03;7392018;19;1534;-44
2023/11/30 08:48:29;;;;;;;;;;;;;;;19.64;55.53;101107.19;7383466;19;1942;-45
2023/11/30 08:50:57;;;;;;;;;;;;;;;19.55;55.87;101121.38;7390490;19;1460;-44
2023/11/30 08:53:25;;;;;;;;;;;;;;;19.56;56.06;101099.78;7391205;19;1521;-44
2023/11/30 08:55:54;;;;;;;;;;;;;;;20.13;54.86;101094.88;7390607;19;1710;-45
2023/11/30 08:58:22;;;;;;;;;;;;;;;20.29;54.39;101094.38;7397352;19;1824;-44
2023/11/30 09:00:51;;;;;;;;;;;;;;;19.98;55.09;101090.88;7396448;19;1838;-45
2023/11/30 09:03:22;;;;;;;;;;;;;;;19.73;55.50;101098.34;7399545;19;1481;-44
2023/11/30 09:05:51;;;;;;;;;;;;;;;19.60;55.72;101103.91;7398510;19;1845;-44
2023/11/30 09:08:19;;;;;;;;;;;;;;;19.52;56.17;101090.31;7398601;19;1874;-44
2023/11/30 09:10:48;;;;;;;;;;;;;;;19.65;56.05;101096.28;7399919;19;1742;-44
2023/11/30 09:13:16;;;;;;;;;;;;;;;20.30;54.64;101095.25;7399891;19;1065;-44
2023/11/30 09:15:45;;;;;;;;;;;;;;;20.58;53.79;101091.78;7398923;19;2034;-44
2023/11/30 09:18:13;;;;;;;;;;;;;;;20.23;54.46;101100.28;7397401;19;1505;-44
2023/11/30 09:20:44;;;;;;;;;;;;;;;19.89;55.16;101060.31;7398395;19;1861;-44
2023/11/30 09:23:12;;;;;;;;;;;;;;;19.72;55.81;101072.53;7397458;19;1784;-44
2023/11/30 09:25:41;;;;;;;;;;;;;;;19.63;56.20;101065.22;7397719;19;1825;-44
2023/11/30 09:28:10;;;;;;;;;;;;;;;19.54;56.34;101052.63;7397441;19;1532;-44
2023/11/30 09:30:39;;;;;;;;;;;;;;;20.07;55.17;101055.16;7396911;19;1770;-45
2023/11/30 09:33:07;;;;;;;;;;;;;;;20.45;54.19;101041.00;7395402;19;1618;-44
2023/11/30 09:35:36;;;;;;;;;;;;;;;20.22;54.43;101048.44;7398200;19;2047;-44
2023/11/30 09:38:07;;;;;;;;;;;;;;;19.92;55.28;101032.38;7397321;19;1572;-44
2023/11/30 09:40:35;;;;;;;;;;;;;;;19.68;55.99;101046.91;7398000;19;1761;-44
2023/11/30 09:43:04;;;;;;;;;;;;;;;19.57;56.12;101044.28;7394391;19;1853;-44
2023/11/30 09:45:33;;;;;;;;;;;;;;;19.53;56.32;101045.53;7397018;19;1757;-44
2023/11/30 09:48:01;;;;;;;;;;;;;;;19.97;55.47;101038.16;7394908;19;1836;-44
2023/11/30 09:50:30;;;;;;;;;;;;;;;20.46;54.05;101025.72;7381352;19;1629;-44
2023/11/30 09:52:58;;;;;;;;;;;;;;;20.41;54.16;101009.16;7395792;19;1576;-45
2023/11/30 09:55:30;;;;;;;;;;;;;;;20.07;54.86;101020.25;7396580;19;1783;-45
2023/11/30 09:57:59;;;;;;;;;;;;;;;19.76;55.99;101011.41;7396846;19;1886;-44
2023/11/30 10:00:27;;;;;;;;;;;;;;;19.57;56.07;101006.75;7397343;19;1841;-44
2023/11/30 10:02:57;;;;;;;;;;;;;;;19.46;56.49;101005.84;7393600;19;1923;-44
2023/11/30 10:05:28;;;;;;;;;;;;;;;19.63;56.38;100984.75;7396768;19;1489;-44
2023/11/30 10:07:58;;;;;;;;;;;;;;;20.23;54.75;101001.81;7396856;19;1737;-44
2023/11/30 10:10:26;;;;;;;;;;;;;;;20.41;54.58;101003.78;7396999;19;1433;-44
2023/11/30 10:12:57;;;;;;;;;;;;;;;20.20;54.69;100991.34;7395276;19;1908;-44
2023/11/30 10:15:25;;;;;;;;;;;;;;;19.82;55.68;100979.50;7395172;19;1674;-44
2023/11/30 10:17:54;;;;;;;;;;;;;;;19.59;56.23;100983.31;7395173;19;1553;-45
2023/11/30 10:20:25;;;;;;;;;;;;;;;19.45;56.45;100977.31;7392378;19;1566;-44
2023/11/30 10:22:53;;;;;;;;;;;;;;;19.43;56.73;100979.28;7392898;19;1876;-45
2023/11/30 10:25:22;;;;;;;;;;;;;;;20.09;55.23;100982.53;7395792;19;1630;-44
2023/11/30 10:27:53;;;;;;;;;;;;;;;20.32;54.43;100980.47;7396719;19;1483;-44
2023/11/30 10:30:27;;;;;;;;;;;;;;;20.26;54.70;100971.97;7395540;19;1743;-45
2023/11/30 10:35:52;;;;;;;;;;;;;;;19.71;56.27;100958.13;7395739;19;1648;-44
2023/11/30 10:38:24;;;;;;;;;;;;;;;19.56;56.64;100949.56;7391745;19;1749;-44
2023/11/30 10:40:54;;;;;;;;;;;;;;;19.50;56.69;100952.78;7395772;19;1663;-44
2023/11/30 10:43:24;;;;;;;;;;;;;;;19.71;56.40;100957.25;7393278;19;1911;-44
2023/11/30 10:45:57;;;;;;;;;;;;;;;20.24;54.79;100931.00;7393773;19;1183;-44
2023/11/30 10:48:26;;;;;;;;;;;;;;;20.43;54.41;100937.34;7392457;19;1801;-44
2023/11/30 10:50:56;;;;;;;;;;;;;;;20.16;54.70;100930.84;7377702;19;1857;-44
2023/11/30 10:53:29;;;;;;;;;;;;;;;19.89;55.47;100936.84;7395397;19;1762;-45
2023/11/30 10:55:57;;;;;;;;;;;;;;;19.61;56.37;100933.91;7395480;19;1820;-44
2023/11/30 10:58:26;;;;;;;;;;;;;;;19.47;56.85;100940.47;7394559;19;1766;-44
2023/11/30 11:01:00;;;;;;;;;;;;;;;19.41;56.94;100949.06;7393705;19;1847;-44
2023/11/30 11:03:29;;;;;;;;;;;;;;;20.09;55.33;100931.53;7393413;19;1853;-45
2023/11/30 11:05:57;;;;;;;;;;;;;;;20.34;54.79;100943.59;7394306;19;1642;-45
2023/11/30 11:08:26;;;;;;;;;;;;;;;20.15;55.03;100953.28;7395079;19;1574;-59
2023/11/30 11:10:54;;;;;;;;;;;;;;;19.84;55.65;100945.31;7393842;19;1722;-45
2023/11/30 11:13:24;;;;;;;;;;;;;;;19.66;56.22;100942.41;7392731;19;1439;-44
2023/11/30 11:16:02;;;;;;;;;;;;;;;19.47;56.74;100940.47;7393650;19;1168;-44
2023/11/30 11:18:31;;;;;;;;;;;;;;;19.45;56.91;100938.91;7392916;19;1729;-44
2023/11/30 11:21:01;;;;;;;;;;;;;;;19.94;55.68;100939.13;7393649;19;1822;-44
2023/11/30 11:23:35;;;;;;;;;;;;;;;20.23;54.86;100950.78;7391865;19;1838;-44
2023/11/30 11:26:05;;;;;;;;;;;;;;;20.26;54.67;100947.81;7393230;19;1907;-44
2023/11/30 11:28:34;;;;;;;;;;;;;;;19.93;55.39;100953.53;7393280;19;1806;-44
2023/11/30 11:31:05;;;;;;;;;;;;;;;19.64;56.26;100943.53;7393047;19;1809;-44
2023/11/30 11:33:33;;;;;;;;;;;;;;;19.49;56.89;100940.34;7393733;19;1445;-44
2023/11/30 11:36:03;;;;;;;;;;;;;;;19.36;57.20;100924.50;7393453;19;1567;-44
2023/11/30 11:38:32;;;;;;;;;;;;;;;19.89;55.75;100941.38;7395374;19;1014;-44
2023/11/30 11:41:00;;;;;;;;;;;;;;;20.10;55.33;100922.50;7394245;19;1759;-44
2023/11/30 11:43:28;;;;;;;;;;;;;;;20.08;55.05;100914.56;7391786;19;1837;-44
2023/11/30 11:45:56;;;;;;;;;;;;;;;19.77;55.75;100917.31;7393089;19;1849;-44
2023/11/30 11:48:27;;;;;;;;;;;;;;;19.51;56.33;100898.16;7392897;19;1635;-44
2023/11/30 11:50:59;;;;;;;;;;;;;;;19.34;56.92;100896.97;7378481;19;1727;-44
2023/11/30 11:53:28;;;;;;;;;;;;;;;19.57;56.42;100886.03;7392675;19;1697;-44
2023/11/30 11:56:03;;;;;;;;;;;;;;;19.93;55.34;100879.22;7390462;19;1649;-44
2023/11/30 11:58:31;;;;;;;;;;;;;;;20.11;55.28;100875.84;7392173;19;1687;-44
2023/11/30 12:00:59;;;;;;;;;;;;;;;20.15;54.97;100870.06;7392024;19;1851;-44
2023/11/30 12:03:30;;;;;;;;;;;;;;;19.79;55.68;100888.50;7391802;19;1845;-44
2023/11/30 12:05:59;;;;;;;;;;;;;;;19.54;56.46;100870.22;7393403;19;1849;-44
2023/11/30 12:08:33;;;;;;;;;;;;;;;19.33;56.87;100860.41;7391907;19;2589;-45
2023/11/30 12:11:01;;;;;;;;;;;;;;;19.41;56.81;100879.34;7391328;19;1587;-45
2023/11/30 12:13:30;;;;;;;;;;;;;;;19.96;55.30;100867.38;7390812;19;1460;-44
2023/11/30 12:15:58;;;;;;;;;;;;;;;20.08;55.34;100862.72;7393587;19;1544;-44
2023/11/30 12:18:26;;;;;;;;;;;;;;;20.21;54.67;100861.47;7392597;19;1602;-44
2023/11/30 12:20:58;;;;;;;;;;;;;;;19.90;55.38;100857.22;7391811;19;1838;-44
2023/11/30 12:23:26;;;;;;;;;;;;;;;19.59;56.31;100865.28;7390153;19;1881;-44
2023/11/30 12:25:56;;;;;;;;;;;;;;;19.36;56.80;100862.81;7391928;19;1608;-44
2023/11/30 12:28:24;;;;;;;;;;;;;;;19.25;57.22;100873.63;7391538;19;1555;-44
2023/11/30 12:30:52;;;;;;;;;;;;;;;19.59;56.56;100870.66;7394360;19;1584;-44
2023/11/30 12:33:21;;;;;;;;;;;;;;;19.85;55.72;100854.91;7399812;19;1576;-44
2023/11/30 12:35:52;;;;;;;;;;;;;;;20.02;55.23;100866.81;7399298;19;1797;-44
2023/11/30 12:38:23;;;;;;;;;;;;;;;19.94;55.49;100864.81;7397459;19;1568;-44
2023/11/30 12:40:52;;;;;;;;;;;;;;;19.59;56.10;100849.19;7400014;19;1127;-45
2023/11/30 12:43:21;;;;;;;;;;;;;;;19.41;56.71;100851.69;7397393;19;1853;-45
2023/11/30 12:45:49;;;;;;;;;;;;;;;19.28;57.01;100844.72;7398851;19;1585;-44
2023/11/30 12:48:17;;;;;;;;;;;;;;;19.42;56.78;100838.13;7398624;19;1532;-44
2023/11/30 12:50:46;;;;;;;;;;;;;;;20.07;55.16;100824.28;7383595;19;1539;-44
2023/11/30 12:53:17;;;;;;;;;;;;;;;20.20;54.90;100824.84;7400622;19;1583;-44
2023/11/30 12:55:48;;;;;;;;;;;;;;;20.27;54.59;100825.13;7399613;19;2017;-44
2023/11/30 12:58:17;;;;;;;;;;;;;;;20.36;54.38;100810.84;7398813;19;1834;-45
2023/11/30 13:00:45;;;;;;;;;;;;;;;20.44;54.02;100796.69;7398512;19;1527;-44